Time;durP1;ratioP1;P1;durP2;ratioP2;P2;SDS_P1;SDS_P2;PMS_P1;PMS_P2;Temp;Humidity;BMP_temperature;BMP_pressure;BME280_temperature;BME280_humidity;BME280_pressure;Samples;Min_cycle;Max_cycle;Signal;HPM_P1;HPM_P2
2024/01/08 00:02:19;;;;;;;19.65;11.90;;;;;;;8.88;77.25;97926.97;4849886;29;20048;-93
2024/01/08 00:04:45;;;;;;;22.98;13.43;;;;;;;8.69;77.71;97940.41;4832471;29;20045;-93
2024/01/08 00:07:11;;;;;;;20.02;12.52;;;;;;;8.70;78.80;97954.63;4833238;29;20036;-92
2024/01/08 00:09:36;;;;;;;21.13;12.77;;;;;;;8.65;78.42;97947.47;4836128;29;20049;-93
2024/01/08 00:12:02;;;;;;;23.30;14.05;;;;;;;8.60;78.22;97941.34;4826877;29;20178;-93
2024/01/08 00:14:27;;;;;;;22.50;13.45;;;;;;;8.73;78.28;97947.88;4821704;29;20064;-91
2024/01/08 00:16:53;;;;;;;20.77;13.10;;;;;;;8.69;78.16;97948.47;4824451;29;20075;-91
2024/01/08 00:19:19;;;;;;;18.90;12.00;;;;;;;8.81;77.91;97958.75;4825155;29;20137;-92
2024/01/08 00:21:44;;;;;;;21.45;13.40;;;;;;;8.84;78.07;97960.03;4825371;29;20492;-91
2024/01/08 00:24:10;;;;;;;21.10;13.07;;;;;;;8.83;77.91;97958.47;4845532;29;20497;-92
2024/01/08 00:26:36;;;;;;;22.40;13.52;;;;;;;8.80;78.39;97959.84;4833969;29;20045;-91
2024/01/08 00:29:02;;;;;;;22.00;13.55;;;;;;;8.85;77.61;97961.66;4833840;29;20045;-93
2024/01/08 00:31:27;;;;;;;21.65;13.50;;;;;;;8.83;78.02;97966.50;4833593;29;20051;-91
2024/01/08 00:33:53;;;;;;;26.17;15.07;;;;;;;8.83;77.48;97956.56;4833173;29;20037;-91
2024/01/08 00:36:18;;;;;;;21.25;13.45;;;;;;;8.83;77.98;97971.88;4848671;29;20515;-91
2024/01/08 00:38:44;;;;;;;21.83;13.27;;;;;;;8.89;78.19;97973.41;4833053;29;20044;-91
2024/01/08 00:41:10;;;;;;;20.90;13.18;;;;;;;8.96;77.10;97964.97;4830930;29;20041;-94
2024/01/08 00:43:36;;;;;;;20.17;12.13;;;;;;;8.89;76.81;97957.28;4834320;29;20044;-93
2024/01/08 00:46:03;;;;;;;22.58;13.65;;;;;;;8.94;76.69;97954.50;4847126;29;20037;-92
2024/01/08 00:48:28;;;;;;;18.10;11.90;;;;;;;9.15;76.94;97984.56;4848907;29;20081;-93
2024/01/08 00:50:54;;;;;;;22.83;12.80;;;;;;;9.14;76.19;97976.78;4833295;29;20037;-93
2024/01/08 00:53:19;;;;;;;23.13;14.27;;;;;;;9.00;76.67;97965.97;4834204;29;20041;-91
2024/01/08 00:55:45;;;;;;;21.50;12.60;;;;;;;8.88;76.81;97971.78;4862218;29;20033;-93
2024/01/08 00:58:10;;;;;;;19.70;13.32;;;;;;;9.02;76.97;97974.53;4847951;29;20052;-93
2024/01/08 01:00:36;;;;;;;20.13;12.40;;;;;;;9.08;76.53;97979.53;4830983;29;20032;-92
2024/01/08 01:03:01;;;;;;;21.35;12.02;;;;;;;9.08;76.80;97970.69;4833100;29;20051;-92
2024/01/08 01:05:27;;;;;;;23.02;13.65;;;;;;;9.02;76.83;97971.84;4863517;29;20044;-92
2024/01/08 01:07:52;;;;;;;19.52;12.73;;;;;;;9.00;77.18;97977.50;4849528;29;20048;-95
2024/01/08 01:10:18;;;;;;;23.27;12.75;;;;;;;9.14;76.81;97979.47;4850283;29;20045;-95
2024/01/08 01:12:44;;;;;;;21.20;12.88;;;;;;;9.19;77.37;97992.78;4835031;29;20041;-94
2024/01/08 01:15:09;;;;;;;19.83;12.25;;;;;;;9.17;76.65;97985.06;4834810;29;20044;-94
2024/01/08 01:17:35;;;;;;;19.42;12.00;;;;;;;9.09;77.17;97975.78;4835831;29;20067;-94
2024/01/08 01:20:00;;;;;;;19.42;13.35;;;;;;;8.87;77.70;97972.88;4853986;29;20408;-93
2024/01/08 01:22:26;;;;;;;22.48;13.30;;;;;;;8.89;77.77;97986.81;4852843;29;20587;-94
2024/01/08 01:24:51;;;;;;;22.27;12.77;;;;;;;8.89;77.27;97992.97;4838714;29;20041;-95
2024/01/08 01:27:17;;;;;;;22.83;12.68;;;;;;;8.88;77.23;97983.34;4838145;29;20158;-94
2024/01/08 01:29:42;;;;;;;21.85;12.88;;;;;;;8.70;78.04;97979.56;4853870;29;20037;-93
2024/01/08 01:32:08;;;;;;;23.48;12.98;;;;;;;8.81;78.23;97998.22;4838189;29;20037;-93
2024/01/08 01:34:34;;;;;;;21.80;12.80;;;;;;;8.73;77.91;97977.41;4838125;29;20052;-95
2024/01/08 01:37:00;;;;;;;21.98;12.60;;;;;;;8.81;78.62;97992.84;4839332;29;20037;-94
2024/01/08 01:39:25;;;;;;;19.30;12.73;;;;;;;8.54;78.35;97972.81;4839667;29;20040;-94
2024/01/08 01:41:51;;;;;;;21.65;11.43;;;;;;;8.68;77.35;97984.44;4853239;29;20037;-95
2024/01/08 01:44:17;;;;;;;18.77;12.38;;;;;;;8.72;78.25;97994.59;4838194;29;20086;-93
2024/01/08 01:46:44;;;;;;;18.63;11.02;;;;;;;8.70;78.42;98002.94;4853899;29;20045;-96
2024/01/08 01:49:17;;;;;;;15.88;9.95;;;;;;;8.70;78.51;98000.25;4839004;29;20209;-93
2024/01/08 01:51:44;;;;;;;14.30;9.60;;;;;;;8.58;78.40;97986.47;4838304;29;20040;-95
2024/01/08 01:54:14;;;;;;;18.15;9.88;;;;;;;8.52;78.84;97976.88;4838311;29;20049;-95
2024/01/08 01:56:40;;;;;;;14.38;9.82;;;;;;;8.54;78.87;97986.22;4853056;29;20076;-94
2024/01/08 01:59:06;;;;;;;15.23;9.90;;;;;;;8.46;78.89;97976.94;4837650;29;20517;-95
2024/01/08 02:01:32;;;;;;;20.13;10.60;;;;;;;8.54;79.07;97977.41;4852247;29;20076;-96
2024/01/08 02:03:57;;;;;;;17.73;10.40;;;;;;;8.50;79.30;97974.47;4837480;29;20033;-95
2024/01/08 02:06:23;;;;;;;16.02;10.10;;;;;;;8.54;79.16;97974.72;4839026;29;20492;-96
2024/01/08 02:08:50;;;;;;;15.70;10.18;;;;;;;8.47;78.90;97973.19;4869075;29;20556;-95
2024/01/08 02:11:17;;;;;;;14.85;10.23;;;;;;;8.65;79.43;97994.94;4838678;29;20056;-94
2024/01/08 02:13:42;;;;;;;19.83;10.70;;;;;;;8.54;78.53;97977.41;4838274;29;20032;-95
2024/01/08 02:16:08;;;;;;;14.70;9.32;;;;;;;8.43;78.70;97966.00;4853673;29;20423;-96
2024/01/08 02:18:33;;;;;;;18.05;10.23;;;;;;;8.46;78.45;97989.56;4838660;29;20056;-95
2024/01/08 02:20:59;;;;;;;15.90;9.88;;;;;;;8.38;78.40;97980.22;4837013;29;20037;-95
2024/01/08 02:23:24;;;;;;;12.43;8.13;;;;;;;8.40;78.63;97993.38;4838081;29;20219;-95
2024/01/08 02:25:50;;;;;;;13.90;9.40;;;;;;;8.28;79.45;97988.44;4837977;29;20041;-95
2024/01/08 02:28:15;;;;;;;14.32;8.77;;;;;;;8.35;79.24;98010.31;4836465;29;20056;-94
2024/01/08 02:30:41;;;;;;;13.07;8.50;;;;;;;8.22;78.98;97985.00;4837314;29;20037;-93
2024/01/08 02:33:07;;;;;;;12.50;8.35;;;;;;;8.30;78.86;98000.47;4837018;29;20037;-94
2024/01/08 02:35:32;;;;;;;14.13;8.60;;;;;;;8.30;78.95;98018.44;4837752;29;20044;-93
2024/01/08 02:37:58;;;;;;;13.52;8.02;;;;;;;8.05;79.46;98006.09;4837374;29;20032;-93
2024/01/08 02:40:24;;;;;;;11.75;7.32;;;;;;;7.98;79.64;97998.41;4835863;29;20037;-94
2024/01/08 02:42:50;;;;;;;11.30;6.40;;;;;;;7.93;79.95;98001.16;4837753;29;20137;-93
2024/01/08 02:45:15;;;;;;;13.57;7.15;;;;;;;7.96;79.86;98021.22;4836997;29;20040;-94
2024/01/08 02:47:41;;;;;;;10.07;6.45;;;;;;;7.84;79.73;98011.72;4837067;29;20032;-95
2024/01/08 02:50:07;;;;;;;8.70;5.93;;;;;;;7.81;79.41;98008.78;4837160;29;20044;-94
2024/01/08 02:52:33;;;;;;;9.40;6.05;;;;;;;7.56;80.44;98020.56;4837559;29;20044;-95
2024/01/08 02:54:59;;;;;;;10.43;6.07;;;;;;;7.49;80.51;98005.63;4837780;29;20072;-96
2024/01/08 02:57:27;;;;;;;10.98;6.53;;;;;;;7.52;80.53;98024.88;4837070;29;20057;-94
2024/01/08 02:59:53;;;;;;;10.57;5.75;;;;;;;7.58;80.68;98040.63;4836984;29;20041;-94
2024/01/08 03:02:19;;;;;;;8.77;5.60;;;;;;;7.47;80.23;98028.38;4838521;29;20052;-95
2024/01/08 03:04:44;;;;;;;8.85;5.80;;;;;;;7.38;79.93;98028.19;4837294;29;20025;-95
2024/01/08 03:07:17;;;;;;;8.80;5.75;;;;;;;7.36;79.95;98026.88;4838646;29;20044;-95
2024/01/08 03:09:44;;;;;;;9.23;6.05;;;;;;;7.30;79.43;98026.13;4839267;29;20109;-94
2024/01/08 03:12:12;;;;;;;9.95;6.20;;;;;;;7.45;79.59;98054.63;4837549;29;20061;-95
2024/01/08 03:14:37;;;;;;;8.82;5.78;;;;;;;7.23;78.73;98031.00;4852681;29;20053;-95
2024/01/08 03:17:03;;;;;;;9.65;6.10;;;;;;;7.28;79.41;98057.72;4852690;29;20155;-94
2024/01/08 03:19:28;;;;;;;11.80;5.80;;;;;;;7.01;80.37;98048.25;4836559;29;20048;-95
2024/01/08 03:21:54;;;;;;;10.45;5.40;;;;;;;6.97;80.00;98038.41;4837405;29;20041;-96
2024/01/08 03:24:20;;;;;;;10.35;6.30;;;;;;;7.03;79.94;98040.75;4837018;29;20129;-96
2024/01/08 03:26:45;;;;;;;9.10;6.25;;;;;;;7.18;78.97;98058.63;4837081;29;20049;-95
2024/01/08 03:29:11;;;;;;;11.00;6.05;;;;;;;7.08;79.50;98047.97;4836628;29;20464;-95
2024/01/08 03:31:43;;;;;;;9.82;6.15;;;;;;;7.15;79.75;98055.69;4837042;29;20044;-94
2024/01/08 03:34:09;;;;;;;8.43;5.18;;;;;;;7.11;79.36;98060.00;4837582;29;20072;-93
2024/01/08 03:36:35;;;;;;;12.55;7.05;;;;;;;6.86;80.31;98037.66;4837473;29;20033;-94
2024/01/08 03:39:01;;;;;;;9.68;6.10;;;;;;;6.90;79.61;98035.25;4835719;29;20037;-93
2024/01/08 03:41:27;;;;;;;10.15;5.80;;;;;;;6.95;79.60;98062.78;4835927;29;20129;-93
2024/01/08 03:43:52;;;;;;;10.18;6.22;;;;;;;6.83;80.31;98051.63;4838000;29;20045;-92
2024/01/08 03:46:18;;;;;;;9.55;6.57;;;;;;;6.88;80.01;98067.63;4836756;29;20045;-94
2024/01/08 03:48:43;;;;;;;8.27;5.25;;;;;;;6.74;80.38;98059.41;4836254;29;20048;-93
2024/01/08 03:51:09;;;;;;;8.52;5.45;;;;;;;6.90;80.08;98078.06;4836056;29;20033;-93
2024/01/08 03:53:34;;;;;;;10.52;5.47;;;;;;;6.72;80.61;98072.25;4836132;29;20039;-95
2024/01/08 03:56:00;;;;;;;7.60;5.07;;;;;;;6.74;80.81;98077.31;4836995;29;20056;-94
2024/01/08 03:58:26;;;;;;;8.55;5.38;;;;;;;6.67;80.08;98070.41;4835773;29;20045;-94
2024/01/08 04:00:54;;;;;;;8.48;4.85;;;;;;;6.64;80.30;98091.53;4836754;29;20036;-94
2024/01/08 04:03:20;;;;;;;8.63;4.82;;;;;;;6.76;79.87;98099.25;4836531;29;20041;-94
2024/01/08 04:05:46;;;;;;;11.25;5.40;;;;;;;6.75;80.43;98122.53;4836236;29;20136;-95
2024/01/08 04:08:14;;;;;;;7.43;4.43;;;;;;;6.70;80.76;98117.19;4836473;29;20041;-93
2024/01/08 04:10:39;;;;;;;7.82;5.00;;;;;;;6.74;80.14;98128.16;4835977;29;20037;-95
2024/01/08 04:13:05;;;;;;;6.72;4.60;;;;;;;6.53;80.61;98098.00;4836283;29;20048;-93
2024/01/08 04:15:31;;;;;;;8.82;4.75;;;;;;;6.61;80.44;98116.97;4836276;29;20040;-93
2024/01/08 04:17:56;;;;;;;7.13;4.40;;;;;;;6.63;80.63;98125.50;4834352;29;20559;-94
2024/01/08 04:20:22;;;;;;;7.97;4.43;;;;;;;6.67;81.41;98136.47;4835639;29;20039;-96
2024/01/08 04:22:49;;;;;;;9.68;5.07;;;;;;;6.71;80.64;98121.47;4835696;29;20052;-94
2024/01/08 04:25:22;;;;;;;6.97;4.03;;;;;;;6.69;79.84;98115.59;4838030;29;20045;-95
2024/01/08 04:27:48;;;;;;;7.35;4.65;;;;;;;6.80;80.06;98145.78;4854747;29;20405;-94
2024/01/08 04:30:19;;;;;;;8.80;4.63;;;;;;;6.59;80.27;98140.50;4840615;29;20136;-95
2024/01/08 04:32:54;;;;;;;9.27;4.70;;;;;;;6.68;81.03;98164.81;4842202;29;20041;-96
2024/01/08 04:35:19;;;;;;;9.00;4.22;;;;;;;6.45;80.78;98144.81;4839202;29;20036;-95
2024/01/08 04:37:45;;;;;;;7.53;4.38;;;;;;;6.50;81.00;98155.53;4835864;29;20036;-96
2024/01/08 04:40:11;;;;;;;8.40;4.78;;;;;;;6.49;80.97;98164.59;4836672;29;20042;-94
2024/01/08 04:42:36;;;;;;;7.78;4.28;;;;;;;6.54;81.05;98158.47;4851502;29;20040;-94
2024/01/08 04:45:03;;;;;;;6.63;4.38;;;;;;;6.53;80.43;98159.53;4836008;29;20044;-93
2024/01/08 04:47:31;;;;;;;9.13;4.90;;;;;;;6.49;80.30;98169.94;4834977;29;20118;-94
2024/01/08 04:49:57;;;;;;;9.98;4.97;;;;;;;6.54;80.36;98187.88;4827332;29;20532;-94
2024/01/08 04:52:23;;;;;;;11.18;5.78;;;;;;;6.53;79.49;98178.25;4816762;29;20110;-95
2024/01/08 04:54:51;;;;;;;11.93;5.10;;;;;;;6.60;79.24;98190.25;4818790;29;20073;-94
2024/01/08 04:57:17;;;;;;;7.10;4.35;;;;;;;6.46;78.87;98178.53;4817706;29;20050;-94
2024/01/08 04:59:43;;;;;;;10.52;4.72;;;;;;;6.47;79.69;98193.47;4832512;29;20037;-96
2024/01/08 05:02:09;;;;;;;6.50;4.10;;;;;;;6.39;78.78;98210.06;4818547;29;20069;-96
2024/01/08 05:04:35;;;;;;;5.63;3.95;;;;;;;6.41;78.52;98205.25;4817695;29;20042;-96
2024/01/08 05:07:04;;;;;;;10.80;5.97;;;;;;;6.15;78.89;98207.97;4838360;29;20066;-92
2024/01/08 05:09:35;;;;;;;8.32;4.75;;;;;;;5.99;78.63;98211.72;4834059;29;20042;-93
2024/01/08 05:12:01;;;;;;;7.20;4.47;;;;;;;6.00;78.73;98216.00;4847631;29;20189;-93
2024/01/08 05:14:27;;;;;;;6.47;4.05;;;;;;;5.84;78.02;98204.47;4818446;29;20544;-94
2024/01/08 05:16:52;;;;;;;10.68;5.75;;;;;;;6.06;78.25;98229.09;4818939;29;20416;-94
2024/01/08 05:19:18;;;;;;;6.38;3.97;;;;;;;6.09;77.73;98240.31;4817841;29;20040;-95
2024/01/08 05:21:47;;;;;;;10.52;4.57;;;;;;;5.99;77.21;98220.50;4820688;29;20033;-94
2024/01/08 05:24:13;;;;;;;9.13;4.25;;;;;;;5.96;77.36;98236.31;4821185;29;20124;-95
2024/01/08 05:26:42;;;;;;;7.35;3.90;;;;;;;5.75;76.76;98254.94;4821621;29;20097;-94
2024/01/08 05:29:07;;;;;;;6.47;4.03;;;;;;;5.64;77.70;98239.94;4821189;29;20053;-94
2024/01/08 05:31:33;;;;;;;8.50;4.93;;;;;;;5.50;77.43;98250.34;4820255;29;20124;-95
2024/01/08 05:34:07;;;;;;;6.78;4.05;;;;;;;5.52;77.59;98245.53;4818595;29;20057;-94
2024/01/08 05:36:33;;;;;;;6.32;4.25;;;;;;;5.67;78.07;98274.16;4820881;29;20109;-94
2024/01/08 05:38:59;;;;;;;5.80;4.40;;;;;;;5.69;77.25;98261.34;4817969;29;20057;-94
2024/01/08 05:41:25;;;;;;;6.65;3.63;;;;;;;5.68;76.64;98278.41;4820778;29;20029;-93
2024/01/08 05:43:51;;;;;;;5.78;3.60;;;;;;;5.50;76.11;98273.53;4836211;29;20108;-95
2024/01/08 05:46:22;;;;;;;6.70;4.45;;;;;;;5.32;76.71;98274.84;4819433;29;20069;-92
2024/01/08 05:48:50;;;;;;;7.13;4.57;;;;;;;5.33;77.24;98301.25;4833374;29;20038;-93
2024/01/08 05:51:36;;;;;;;7.35;4.45;;;;;;;5.06;77.54;98269.38;4826582;29;20041;-92
2024/01/08 05:54:02;;;;;;;7.20;4.07;;;;;;;5.21;77.23;98292.69;4842694;29;20036;-92
2024/01/08 05:56:46;;;;;;;6.15;4.22;;;;;;;5.03;77.15;98292.03;4836869;29;20135;-93
2024/01/08 05:59:20;;;;;;;6.22;3.92;;;;;;;4.98;76.58;98288.53;4833618;29;20029;-92
2024/01/08 06:01:46;;;;;;;7.70;5.03;;;;;;;4.95;77.46;98297.06;4836557;29;20041;-93
2024/01/08 06:04:14;;;;;;;6.53;4.05;;;;;;;4.98;77.33;98300.03;4830164;29;20117;-94
2024/01/08 06:06:40;;;;;;;5.75;4.28;;;;;;;5.00;76.57;98324.59;4831326;29;20045;-93
2024/01/08 06:09:09;;;;;;;9.15;4.85;;;;;;;4.84;76.47;98321.00;4825998;29;20045;-94
2024/01/08 06:11:35;;;;;;;7.97;4.43;;;;;;;4.82;76.58;98307.13;4829116;29;20038;-94
2024/01/08 06:14:05;;;;;;;8.70;5.82;;;;;;;4.98;76.07;98316.03;4833066;29;20041;-95
2024/01/08 06:16:42;;;;;;;6.35;3.60;;;;;;;4.96;75.01;98307.47;4824655;29;20072;-94
2024/01/08 06:19:07;;;;;;;7.47;4.35;;;;;;;5.17;75.08;98348.41;4823709;29;20120;-92
2024/01/08 06:21:33;;;;;;;76.47;38.10;;;;;;;4.86;74.58;98329.56;4840503;29;20069;-94
2024/01/08 06:24:01;;;;;;;15.85;9.07;;;;;;;4.79;74.85;98336.16;4841855;29;20037;-93
2024/01/08 06:26:32;;;;;;;8.38;5.57;;;;;;;4.90;74.77;98350.38;4844824;29;20537;-95
2024/01/08 06:29:00;;;;;;;9.93;5.63;;;;;;;4.85;75.60;98338.59;4858188;29;20066;-94
2024/01/08 06:31:26;;;;;;;7.75;4.82;;;;;;;4.75;75.27;98349.22;4842463;29;20041;-93
2024/01/08 06:33:55;;;;;;;5.07;3.58;;;;;;;4.63;75.03;98352.06;4832534;29;20105;-95
2024/01/08 06:36:38;;;;;;;;;;;;;;;;;;;;;
2024/01/08 06:45:15;;;;;;;6.57;4.63;;;;;;;4.54;74.82;98366.09;4853227;29;20119;-94
2024/01/08 06:47:41;;;;;;;5.85;4.35;;;;;;;4.69;73.60;98394.75;4820250;29;20090;-93
2024/01/08 06:50:16;;;;;;;8.27;5.95;;;;;;;4.45;75.86;98390.56;4804510;29;20053;-95
2024/01/08 06:52:45;;;;;;;8.68;7.47;;;;;;;4.40;74.62;98384.34;4822766;29;20042;-93
2024/01/08 06:55:35;;;;;;;39.92;24.20;;;;;;;4.56;74.47;98396.78;4839356;29;20041;-95
2024/01/08 06:58:03;;;;;;;107.47;54.60;;;;;;;4.65;74.61;98418.47;4819886;29;20071;-95
2024/01/08 07:00:29;;;;;;;13.18;8.00;;;;;;;4.58;75.33;98418.66;4790591;29;20475;-94
2024/01/08 07:02:55;;;;;;;7.05;5.05;;;;;;;4.71;74.52;98435.28;4805392;29;20102;-92
2024/01/08 07:05:40;;;;;;;11.13;6.50;;;;;;;4.56;75.16;98442.09;4794951;29;20505;-93
2024/01/08 07:08:07;;;;;;;6.65;4.68;;;;;;;4.36;75.66;98426.72;5027734;24;20050;-94
2024/01/08 07:10:38;;;;;;;5.82;3.75;;;;;;;4.40;75.07;98421.66;4860081;29;20052;-94
2024/01/08 07:13:22;;;;;;;3.75;2.92;;;;;;;4.33;75.09;98459.19;4877906;29;20093;-94
2024/01/08 07:15:53;;;;;;;13.55;7.32;;;;;;;4.13;75.56;98425.16;4858534;29;20086;-95
2024/01/08 07:18:22;;;;;;;7.55;4.13;;;;;;;4.24;76.28;98437.50;4838007;29;20048;-95
2024/01/08 07:20:51;;;;;;;7.97;4.85;;;;;;;4.43;74.29;98453.16;4824735;29;20033;-94
2024/01/08 07:24:56;;;;;;;6.32;3.90;;;;;;;4.45;74.94;98467.84;4983519;27;4361592;-95
2024/01/08 07:27:32;;;;;;;7.53;4.32;;;;;;;4.37;75.75;98472.81;5070308;28;20032;-95
2024/01/08 07:29:59;;;;;;;7.25;4.45;;;;;;;4.20;75.40;98465.72;5086586;28;20119;-90
2024/01/08 07:32:43;;;;;;;5.63;3.67;;;;;;;4.18;74.89;98457.16;5094364;28;20103;-95
2024/01/08 07:35:13;;;;;;;4.65;3.45;;;;;;;4.15;73.94;98488.81;5078812;28;20035;-93
2024/01/08 07:37:49;;;;;;;9.18;4.97;;;;;;;4.27;73.91;98507.34;5082774;28;20054;-95
2024/01/08 07:40:53;;;;;;;18.80;11.52;;;;;;;4.18;73.92;98489.13;5066407;28;20035;-93
2024/01/08 07:43:33;;;;;;;6.53;4.40;;;;;;;4.24;75.41;98517.44;5055851;28;20213;-95
2024/01/08 07:46:02;;;;;;;6.82;4.35;;;;;;;4.39;73.48;98527.47;5066103;28;20040;-90
2024/01/08 07:48:54;;;;;;;7.50;5.20;;;;;;;4.21;73.94;98506.47;5078498;28;20035;-93
2024/01/08 07:51:27;;;;;;;5.80;3.90;;;;;;;4.14;73.96;98519.97;5099270;28;20028;-93
2024/01/08 07:54:04;;;;;;;40.20;23.95;;;;;;;4.00;75.08;98511.53;5067901;28;20023;-95
2024/01/08 07:56:40;;;;;;;4.47;3.63;;;;;;;3.98;74.14;98544.81;5068305;28;20070;-92
2024/01/08 08:21:59;;;;;;;4.07;2.85;;;;;;;3.65;75.61;98599.69;5057884;28;20075;-94
2024/01/08 08:25:01;;;;;;;6.00;4.63;;;;;;;3.58;74.79;98577.78;5005316;28;20132;-95
2024/01/08 08:27:32;;;;;;;4.15;3.10;;;;;;;3.62;75.44;98606.31;5044314;28;20511;-94
2024/01/08 08:30:08;;;;;;;8.68;5.45;;;;;;;3.74;75.20;98600.94;5016154;28;20049;-93
2024/01/08 08:36:59;;;;;;;6.20;3.92;;;;;;;3.23;75.26;98624.81;5022965;28;20030;-95
2024/01/08 08:39:53;;;;;;;;;;;;;;;;;;;;;
2024/01/08 08:42:36;;;;;;;5.90;3.10;;;;;;;3.23;75.54;98638.13;5393009;22;20165;-95
2024/01/08 08:45:32;;;;;;;4.25;3.15;;;;;;;3.36;75.38;98646.88;4987295;28;20065;-94
2024/01/08 08:48:08;;;;;;;8.48;4.07;;;;;;;3.21;74.97;98624.25;4967157;28;20014;-92
2024/01/08 08:53:44;;;;;;;4.70;3.20;;;;;;;3.39;74.28;98631.22;4972119;28;20038;-90
2024/01/08 08:56:10;;;;;;;5.75;3.80;;;;;;;3.36;74.94;98636.22;4954495;28;20043;-91
2024/01/08 08:58:36;;;;;;;8.25;4.85;;;;;;;3.38;75.22;98648.25;4936078;28;20034;-89
2024/01/08 09:01:04;;;;;;;8.70;4.82;;;;;;;3.54;73.67;98659.97;4936150;28;20571;-88
2024/01/08 09:03:30;;;;;;;4.78;3.58;;;;;;;3.50;73.99;98644.72;4931754;28;20027;-92
2024/01/08 09:05:55;;;;;;;6.15;4.00;;;;;;;3.63;73.25;98647.06;4949541;28;20456;-92
2024/01/08 09:08:26;;;;;;;5.40;3.70;;;;;;;3.67;73.45;98644.72;4927587;28;20039;-93
2024/01/08 09:10:51;;;;;;;5.70;3.00;;;;;;;3.67;72.64;98660.69;4928810;28;20155;-91
2024/01/08 09:13:30;;;;;;;;;;;;;;;;;;;;;
2024/01/08 09:15:59;;;;;;;4.28;3.13;;;;;;;3.60;72.51;98666.97;4962524;28;20046;-90
2024/01/08 09:24:58;;;;;;;5.32;3.58;;;;;;;3.28;73.89;98672.03;4937015;29;20449;-93
2024/01/08 09:27:31;;;;;;;7.03;4.07;;;;;;;3.36;73.58;98686.78;4897699;29;20101;-90
2024/01/08 09:29:57;;;;;;;4.95;3.67;;;;;;;3.50;73.47;98713.91;4935321;28;20038;-92
2024/01/08 09:32:24;;;;;;;5.55;3.70;;;;;;;3.38;73.29;98685.50;4924876;28;20040;-90
2024/01/08 09:34:51;;;;;;;8.85;6.43;;;;;;;3.37;73.88;98680.41;4925155;28;20053;-88
2024/01/08 09:43:47;;;;;;;5.38;3.58;;;;;;;3.27;74.62;98720.94;4951126;28;20124;-95
2024/01/08 09:49:43;;;;;;;4.93;3.60;;;;;;;3.11;74.63;98719.03;4971707;28;20039;-93
2024/01/08 09:52:28;;;;;;;5.50;3.63;;;;;;;2.68;75.66;98717.59;4951101;28;20057;-95
2024/01/08 09:55:05;;;;;;;5.20;3.15;;;;;;;2.78;75.62;98723.13;4944475;28;20039;-92
2024/01/08 09:57:41;;;;;;;4.35;2.92;;;;;;;2.74;75.87;98719.31;4926492;29;20072;-92
2024/01/08 10:00:49;;;;;;;;;;;;;;;;;;;;;
2024/01/08 10:03:43;;;;;;;6.05;4.15;;;;;;;3.01;75.89;98725.75;4961334;28;20101;-91
2024/01/08 10:06:17;;;;;;;6.50;4.18;;;;;;;2.79;75.45;98730.09;4944109;29;20067;-95
2024/01/08 10:24:27;;;;;;;4.65;3.45;;;;;;;2.80;74.20;98739.66;5036276;28;20053;-95
2024/01/08 10:27:33;;;;;;;10.02;8.50;;;;;;;2.90;73.81;98757.69;5021438;28;20045;-93
2024/01/08 10:30:03;;;;;;;7.00;4.43;;;;;;;2.87;75.13;98751.00;5003087;28;20038;-94
2024/01/08 10:32:33;;;;;;;27.35;16.00;;;;;;;2.99;73.69;98765.09;5010647;28;20033;-91
2024/01/08 10:35:06;;;;;;;14.05;9.07;;;;;;;3.02;74.24;98763.78;5001150;28;20029;-96
2024/01/08 10:37:32;;;;;;;29.13;16.38;;;;;;;3.08;73.04;98764.72;5017182;28;20034;-93
2024/01/08 10:40:08;;;;;;;5.35;3.95;;;;;;;3.23;73.22;98781.78;5007699;28;20037;-92
2024/01/08 10:42:40;;;;;;;6.82;4.57;;;;;;;2.99;72.57;98759.75;5021922;28;20116;-94
2024/01/08 10:52:14;;;;;;;4.68;4.00;;;;;;;3.18;73.79;98810.16;5056616;28;20051;-95
2024/01/08 10:58:42;;;;;;;9.02;4.80;;;;;;;3.27;72.62;98821.25;4992312;28;20106;-94
2024/01/08 11:25:19;;;;;;;8.63;5.00;;;;;;;3.02;72.08;98836.41;5065877;22;20056;-95
2024/01/08 11:28:13;;;;;;;6.75;4.97;;;;;;;3.15;73.22;98830.03;5033145;28;20049;-94
2024/01/08 11:31:15;;;;;;;;;;;;;;;;;;;;;
2024/01/08 11:54:37;;;;;;;10.18;5.60;;;;;;;3.09;70.56;98864.72;5005659;28;20479;-93
2024/01/08 11:57:09;;;;;;;8.80;6.00;;;;;;;3.02;70.17;98855.03;4956918;28;20030;-93
2024/01/08 11:59:45;;;;;;;;;;;;;;;;;;;;;
2024/01/08 12:02:27;;;;;;;;;;;;;;;;;;;;;
2024/01/08 12:04:59;;;;;;;7.38;5.65;;;;;;;2.73;70.92;98862.06;4989981;28;20041;-93
2024/01/08 12:07:28;;;;;;;9.05;6.28;;;;;;;2.88;70.89;98869.59;4955969;28;20058;-91
2024/01/08 12:10:22;;;;;;;8.85;5.55;;;;;;;2.78;70.71;98872.00;4964375;28;20022;-94
2024/01/08 12:12:54;;;;;;;8.35;5.57;;;;;;;2.80;70.01;98873.41;5010439;28;20423;-94
2024/01/08 12:15:22;;;;;;;8.43;6.05;;;;;;;2.72;69.08;98883.56;4969478;28;20054;-93
2024/01/08 12:17:48;;;;;;;10.20;5.97;;;;;;;2.57;70.75;98876.84;4963415;28;20042;-93
2024/01/08 12:20:16;;;;;;;9.73;6.05;;;;;;;2.30;69.59;98886.25;4981743;28;20204;-91
2024/01/08 12:22:47;;;;;;;8.70;5.78;;;;;;;2.46;69.82;98892.75;4964704;28;20564;-94
2024/01/08 12:25:12;;;;;;;11.48;6.68;;;;;;;2.52;70.21;98889.19;4970823;28;20026;-94
2024/01/08 12:27:47;;;;;;;12.57;6.43;;;;;;;2.37;71.11;98900.25;4969118;28;20041;-93
2024/01/08 12:30:22;;;;;;;13.07;6.75;;;;;;;2.34;69.86;98900.69;4969457;28;20036;-94
2024/01/08 12:32:48;;;;;;;10.10;6.75;;;;;;;2.45;70.41;98899.94;4962142;28;20049;-94
2024/01/08 12:35:15;;;;;;;11.82;6.78;;;;;;;2.55;70.82;98916.13;4962233;28;20027;-91
2024/01/08 12:37:42;;;;;;;9.90;6.68;;;;;;;2.57;69.67;98914.06;4965317;28;20033;-91
2024/01/08 12:41:05;;;;;;;8.68;5.55;;;;;;;2.66;68.10;98929.66;4970061;28;20033;-91
2024/01/08 12:43:44;;;;;;;9.00;5.90;;;;;;;2.76;68.59;98921.94;4982925;28;20045;-94
2024/01/08 12:46:28;;;;;;;15.52;9.02;;;;;;;2.65;68.67;98918.22;4966583;28;20034;-92
2024/01/08 12:48:57;;;;;;;13.18;7.15;;;;;;;2.61;68.12;98917.06;4947827;28;20122;-91
2024/01/08 12:51:49;;;;;;;9.13;5.88;;;;;;;2.74;68.11;98954.09;4933342;28;20035;-92
2024/01/08 13:11:40;;;;;;;10.25;5.68;;;;;;;2.07;68.72;98970.09;4965154;28;20054;-93
2024/01/08 13:14:17;;;;;;;7.45;5.53;;;;;;;1.86;69.96;98965.25;4910196;29;20028;-93
2024/01/08 13:17:02;;;;;;;7.38;5.10;;;;;;;1.73;69.68;98974.16;4913014;29;20024;-92
2024/01/08 13:19:33;;;;;;;11.23;6.18;;;;;;;1.49;71.11;98968.69;4913381;29;20042;-93
2024/01/08 13:21:59;;;;;;;9.52;6.90;;;;;;;1.48;70.44;98995.44;4913959;29;20031;-93
2024/01/08 13:24:36;;;;;;;;;;;;;;;;;;;;;
2024/01/08 13:27:11;;;;;;;11.13;6.38;;;;;;;1.46;70.22;99013.44;4934254;29;20568;-92
2024/01/08 13:29:42;;;;;;;13.32;6.65;;;;;;;1.42;70.13;99024.47;4913594;29;20119;-94
2024/01/08 13:32:15;;;;;;;10.38;5.60;;;;;;;1.44;69.91;99021.59;4898933;29;20035;-94
2024/01/08 13:35:10;;;;;;;10.75;5.90;;;;;;;1.41;67.94;98982.22;4887807;29;20088;-92
2024/01/08 13:37:41;;;;;;;13.18;6.40;;;;;;;1.53;69.66;98992.94;4878356;29;20056;-95
2024/01/08 13:40:34;;;;;;;8.35;5.50;;;;;;;1.45;69.63;99017.91;4872860;29;20036;-92
2024/01/08 13:43:06;;;;;;;10.52;5.88;;;;;;;1.51;70.49;99026.84;4867906;29;20036;-92
2024/01/08 13:45:32;;;;;;;8.73;6.47;;;;;;;1.37;70.12;99029.63;4891588;29;20415;-94
2024/01/08 13:48:01;;;;;;;8.52;5.82;;;;;;;1.28;69.84;99011.53;4890562;29;20052;-94
2024/01/08 13:53:40;;;;;;;8.68;6.03;;;;;;;1.60;70.87;99034.31;4887574;29;20116;-91
2024/01/08 13:57:19;;;;;;;9.55;6.65;;;;;;;1.64;71.08;99024.06;4908108;29;20518;-96
2024/01/08 13:59:52;;;;;;;10.25;6.03;;;;;;;1.86;69.46;99063.47;4854488;29;20040;-94
2024/01/08 14:09:03;;;;;;;7.80;5.65;;;;;;;1.52;69.45;99069.06;4848802;29;20058;-94
2024/01/08 14:11:38;;;;;;;8.45;5.63;;;;;;;1.51;68.20;99067.44;4901257;29;20565;-95
2024/01/08 14:14:07;;;;;;;17.92;9.93;;;;;;;1.28;70.58;99053.97;4910734;29;20027;-93
2024/01/08 14:20:14;;;;;;;14.02;7.88;;;;;;;1.53;69.17;99075.19;4866760;29;20036;-94
2024/01/08 14:22:43;;;;;;;10.03;6.90;;;;;;;1.41;69.95;99059.97;4911556;29;20031;-93
2024/01/08 14:25:08;;;;;;;32.55;14.90;;;;;;;1.37;69.46;99063.25;4911021;29;20275;-93
2024/01/08 14:27:40;;;;;;;18.13;9.25;;;;;;;1.55;69.01;99089.03;4913944;29;20117;-95
2024/01/08 14:33:20;;;;;;;12.43;7.80;;;;;;;1.19;69.39;99082.59;4933340;29;20057;-95
2024/01/08 14:36:22;;;;;;;11.55;7.35;;;;;;;1.29;69.88;99095.38;4908047;29;20038;-93
2024/01/08 14:39:01;;;;;;;;;;;;;;;;;;;;;
2024/01/08 14:41:30;;;;;;;11.40;7.65;;;;;;;1.07;70.29;99119.56;4939097;29;20113;-92
2024/01/08 14:43:58;;;;;;;19.23;10.18;;;;;;;0.92;71.05;99106.59;4910358;29;20031;-92